Time;durP1;ratioP1;P1;durP2;ratioP2;P2;SDS_P1;SDS_P2;PMS_P1;PMS_P2;Temp;Humidity;BMP_temperature;BMP_pressure;BME280_temperature;BME280_humidity;BME280_pressure;Samples;Min_cycle;Max_cycle;Signal;HPM_P1;HPM_P2
2022/01/04 00:01:34;;;;;;;;;;;;;;;13.41;37.31;100219.56;5033539;28;19968;-74
2022/01/04 00:04:00;;;;;;;;;;;;;;;13.28;37.30;100221.50;5015796;28;19925;-74
2022/01/04 00:06:28;;;;;;;;;;;;;;;13.34;37.44;100220.13;5033460;28;20004;-74
2022/01/04 00:09:01;;;;;;;;;;;;;;;13.05;37.71;100229.38;5033505;28;20410;-76
2022/01/04 00:11:32;;;;;;;;;;;;;;;13.45;37.18;100240.50;5033463;28;19913;-76
2022/01/04 00:13:58;;;;;;;;;;;;;;;13.33;37.22;100230.31;5015639;28;20493;-74
2022/01/04 00:16:23;;;;;;;;;;;;;;;13.67;36.83;100233.69;5033227;28;19928;-73
2022/01/04 00:18:48;;;;;;;;;;;;;;;13.65;36.97;100229.72;5015461;28;19913;-73
2022/01/04 00:21:14;;;;;;;;;;;;;;;13.16;37.29;100230.53;5015234;28;20387;-74
2022/01/04 00:23:39;;;;;;;;;;;;;;;13.51;37.19;100235.56;5033114;28;20398;-74
2022/01/04 00:26:05;;;;;;;;;;;;;;;12.91;38.41;100237.09;5032970;28;19917;-74
2022/01/04 00:28:30;;;;;;;;;;;;;;;13.26;37.73;100238.31;5032845;28;20337;-74
2022/01/04 00:30:56;;;;;;;;;;;;;;;13.31;37.58;100235.34;5014682;28;19917;-76
2022/01/04 00:33:22;;;;;;;;;;;;;;;13.55;37.11;100237.28;5032995;28;19948;-75
2022/01/04 00:35:47;;;;;;;;;;;;;;;13.59;36.96;100237.38;5015075;28;19917;-73
2022/01/04 00:38:13;;;;;;;;;;;;;;;13.55;36.84;100244.72;5032913;28;19949;-74
2022/01/04 00:40:38;;;;;;;;;;;;;;;13.65;36.85;100246.97;5032094;28;20012;-74
2022/01/04 00:43:04;;;;;;;;;;;;;;;13.59;36.64;100242.88;5032656;28;19927;-74
2022/01/04 00:45:35;;;;;;;;;;;;;;;13.66;36.66;100247.78;5015060;28;19999;-74
2022/01/04 00:50:28;;;;;;;;;;;;;;;13.26;37.20;100243.81;5032647;28;20355;-73
2022/01/04 00:52:54;;;;;;;;;;;;;;;13.27;37.23;100236.38;5015046;28;20067;-74
2022/01/04 00:55:19;;;;;;;;;;;;;;;13.19;37.33;100246.28;5032722;28;20024;-74
2022/01/04 00:57:45;;;;;;;;;;;;;;;13.35;37.16;100242.88;5032806;28;19964;-74
2022/01/04 01:00:12;;;;;;;;;;;;;;;12.78;38.08;100236.31;5032676;28;19921;-77
2022/01/04 01:02:38;;;;;;;;;;;;;;;13.10;37.67;100242.06;5032771;28;19917;-74
2022/01/04 01:05:03;;;;;;;;;;;;;;;13.03;37.87;100246.16;5015006;28;19917;-77
2022/01/04 01:07:29;;;;;;;;;;;;;;;12.75;38.40;100243.25;5032725;28;20332;-73
2022/01/04 01:12:40;;;;;;;;;;;;;;;12.87;38.11;100238.94;5032970;28;19924;-74
2022/01/04 01:15:06;;;;;;;;;;;;;;;12.69;38.49;100238.31;5032581;28;19917;-77
2022/01/04 01:17:32;;;;;;;;;;;;;;;12.88;37.95;100237.81;5032578;28;19917;-73
2022/01/04 01:19:57;;;;;;;;;;;;;;;12.87;37.99;100238.94;5014845;28;20052;-74
2022/01/04 01:22:23;;;;;;;;;;;;;;;12.87;37.97;100247.16;5014695;28;19921;-73
2022/01/04 01:24:49;;;;;;;;;;;;;;;13.06;37.55;100236.44;5032481;28;19975;-73
2022/01/04 01:27:15;;;;;;;;;;;;;;;13.09;37.40;100240.47;5032443;28;19917;-74
2022/01/04 01:29:40;;;;;;;;;;;;;;;13.02;37.68;100241.81;5032493;28;19924;-74
2022/01/04 01:32:06;;;;;;;;;;;;;;;13.16;37.33;100241.50;5032390;28;19917;-77
2022/01/04 01:34:31;;;;;;;;;;;;;;;13.13;37.28;100241.38;5032401;28;19917;-76
2022/01/04 01:36:57;;;;;;;;;;;;;;;13.10;37.51;100245.59;5014627;28;19917;-73
2022/01/04 01:39:22;;;;;;;;;;;;;;;13.06;37.72;100241.94;5032702;28;19921;-73
2022/01/04 01:41:48;;;;;;;;;;;;;;;13.03;37.80;100243.41;5032330;28;20374;-73
2022/01/04 01:44:13;;;;;;;;;;;;;;;13.04;37.58;100238.72;5032082;28;19921;-77
2022/01/04 01:46:39;;;;;;;;;;;;;;;13.06;37.59;100252.91;5014627;28;19925;-77
2022/01/04 01:49:04;;;;;;;;;;;;;;;13.11;37.55;100254.63;5014689;28;19953;-74
2022/01/04 01:51:31;;;;;;;;;;;;;;;12.81;38.29;100251.28;5016775;28;19928;-73
2022/01/04 01:53:57;;;;;;;;;;;;;;;12.90;38.18;100254.72;5035965;28;20377;-73
2022/01/04 01:56:22;;;;;;;;;;;;;;;12.89;38.37;100244.88;5018116;28;19917;-74
2022/01/04 01:58:48;;;;;;;;;;;;;;;12.95;38.15;100251.75;5035842;28;19924;-76
2022/01/04 02:01:14;;;;;;;;;;;;;;;12.92;38.22;100252.41;5018031;28;19918;-74
2022/01/04 02:03:39;;;;;;;;;;;;;;;12.91;38.34;100243.38;5035647;28;19921;-74
2022/01/04 02:06:05;;;;;;;;;;;;;;;12.76;38.67;100249.53;5034178;28;20280;-73
2022/01/04 02:08:31;;;;;;;;;;;;;;;12.88;38.27;100257.00;5035717;28;19971;-74
2022/01/04 02:10:57;;;;;;;;;;;;;;;12.90;38.36;100261.00;5035652;28;20268;-74
2022/01/04 02:13:24;;;;;;;;;;;;;;;12.94;38.18;100261.13;5035748;28;20393;-75
2022/01/04 02:15:50;;;;;;;;;;;;;;;12.99;37.93;100261.69;5017869;28;20414;-73
2022/01/04 02:18:16;;;;;;;;;;;;;;;12.73;38.67;100262.00;5035533;28;19917;-74
2022/01/04 02:20:41;;;;;;;;;;;;;;;12.61;39.06;100270.16;5035382;28;20323;-74
2022/01/04 02:23:07;;;;;;;;;;;;;;;12.43;39.44;100275.03;5035499;28;19917;-74
2022/01/04 02:25:32;;;;;;;;;;;;;;;12.85;38.47;100269.47;5035340;28;19923;-73
2022/01/04 02:27:57;;;;;;;;;;;;;;;12.75;38.60;100267.94;5035316;28;19964;-73
2022/01/04 02:30:23;;;;;;;;;;;;;;;12.57;39.16;100274.72;5035385;28;19921;-74
2022/01/04 02:32:48;;;;;;;;;;;;;;;12.55;39.27;100273.47;5035259;28;19956;-73
2022/01/04 02:35:15;;;;;;;;;;;;;;;12.45;39.55;100269.19;5035255;28;20015;-73
2022/01/04 02:37:41;;;;;;;;;;;;;;;12.41;39.86;100281.97;5017329;28;19921;-73
2022/01/04 02:40:07;;;;;;;;;;;;;;;12.42;39.61;100278.09;5035143;28;19917;-77
2022/01/04 02:42:32;;;;;;;;;;;;;;;12.25;39.90;100272.78;5035087;28;19956;-73
2022/01/04 02:45:00;;;;;;;;;;;;;;;12.10;40.31;100277.72;5034857;28;19928;-73
2022/01/04 02:47:26;;;;;;;;;;;;;;;12.21;40.02;100289.88;5035029;28;20008;-73
2022/01/04 02:49:51;;;;;;;;;;;;;;;12.30;39.77;100270.63;5017126;28;19964;-73
2022/01/04 02:52:17;;;;;;;;;;;;;;;12.16;40.07;100270.88;5017191;28;20452;-74
2022/01/04 02:54:42;;;;;;;;;;;;;;;11.86;40.83;100272.09;5034767;28;19923;-77
2022/01/04 02:57:08;;;;;;;;;;;;;;;11.85;41.08;100286.91;5034612;28;19924;-73
2022/01/04 02:59:33;;;;;;;;;;;;;;;11.67;41.56;100286.19;5017029;28;19917;-73
2022/01/04 03:01:58;;;;;;;;;;;;;;;11.73;41.59;100292.28;5034084;28;20291;-73
2022/01/04 03:04:24;;;;;;;;;;;;;;;11.62;41.73;100287.19;5034524;28;19924;-73
2022/01/04 03:06:49;;;;;;;;;;;;;;;11.82;41.34;100288.38;5034718;28;20458;-76
2022/01/04 03:09:15;;;;;;;;;;;;;;;11.85;41.29;100289.66;5034589;28;20383;-73
2022/01/04 03:11:41;;;;;;;;;;;;;;;11.79;41.15;100290.94;5034456;28;20367;-73
2022/01/04 03:14:06;;;;;;;;;;;;;;;11.72;41.63;100296.97;5034417;28;19923;-77
2022/01/04 03:16:32;;;;;;;;;;;;;;;11.97;41.01;100288.94;5034506;28;20286;-73
2022/01/04 03:19:05;;;;;;;;;;;;;;;11.89;41.12;100298.81;5034442;28;20486;-73
2022/01/04 03:21:31;;;;;;;;;;;;;;;11.90;41.02;100297.69;5034323;28;20010;-74
2022/01/04 03:23:57;;;;;;;;;;;;;;;11.86;41.36;100294.81;5034271;28;20430;-74
2022/01/04 03:26:22;;;;;;;;;;;;;;;11.66;41.66;100299.09;5034336;28;19925;-73
2022/01/04 03:28:47;;;;;;;;;;;;;;;11.76;41.38;100295.16;5034086;28;20334;-77
2022/01/04 03:31:13;;;;;;;;;;;;;;;11.85;41.19;100295.13;5034145;28;20012;-73
2022/01/04 03:33:38;;;;;;;;;;;;;;;11.83;41.01;100300.94;5034117;28;19917;-76
2022/01/04 03:36:04;;;;;;;;;;;;;;;11.70;41.37;100303.88;5034041;28;20409;-73
2022/01/04 03:38:30;;;;;;;;;;;;;;;11.63;41.43;100301.66;5033942;28;19921;-73
2022/01/04 03:40:57;;;;;;;;;;;;;;;11.56;41.74;100312.31;5034013;28;20261;-73
2022/01/04 03:43:23;;;;;;;;;;;;;;;11.47;41.91;100317.03;5015971;28;20383;-76
2022/01/04 03:45:49;;;;;;;;;;;;;;;11.55;41.53;100317.00;5016136;28;19978;-78
2022/01/04 03:48:14;;;;;;;;;;;;;;;11.57;41.42;100327.63;5016114;28;19912;-78
2022/01/04 03:50:40;;;;;;;;;;;;;;;11.52;41.67;100322.34;5033804;28;19921;-73
2022/01/04 03:53:05;;;;;;;;;;;;;;;11.61;41.32;100321.16;5033746;28;20409;-73
2022/01/04 03:55:31;;;;;;;;;;;;;;;11.61;41.26;100323.09;5033690;28;20008;-73
2022/01/04 03:57:56;;;;;;;;;;;;;;;11.41;41.97;100321.91;5033676;28;19917;-73
2022/01/04 04:00:21;;;;;;;;;;;;;;;11.32;42.11;100327.41;5033595;28;19917;-74
2022/01/04 04:02:47;;;;;;;;;;;;;;;11.52;41.57;100322.34;5033553;28;19917;-73
2022/01/04 04:05:13;;;;;;;;;;;;;;;11.56;41.52;100335.03;5033540;28;19917;-73
2022/01/04 04:07:39;;;;;;;;;;;;;;;11.46;41.76;100324.44;5033029;28;20015;-77
2022/01/04 04:10:05;;;;;;;;;;;;;;;11.61;41.54;100321.16;5033347;28;20001;-74
2022/01/04 04:12:30;;;;;;;;;;;;;;;11.54;41.55;100331.00;5033414;28;19957;-78
2022/01/04 04:14:58;;;;;;;;;;;;;;;11.49;41.57;100329.28;5016711;28;19953;-78
2022/01/04 04:17:25;;;;;;;;;;;;;;;11.51;41.58;100343.44;4994867;28;19952;-76
2022/01/04 04:19:50;;;;;;;;;;;;;;;11.35;42.04;100334.16;5016533;28;19976;-76
2022/01/04 04:22:15;;;;;;;;;;;;;;;11.44;42.06;100332.19;5022170;28;19921;-76
2022/01/04 04:24:44;;;;;;;;;;;;;;;11.60;41.40;100332.44;5022589;28;19917;-73
2022/01/04 04:27:09;;;;;;;;;;;;;;;11.28;42.25;100334.66;5006102;28;20402;-73
2022/01/04 04:29:34;;;;;;;;;;;;;;;11.51;41.49;100343.44;5013277;28;19971;-75
2022/01/04 04:32:00;;;;;;;;;;;;;;;11.47;41.58;100347.94;5013434;28;19941;-73
2022/01/04 04:34:25;;;;;;;;;;;;;;;11.44;41.77;100356.81;5018087;28;19924;-75
2022/01/04 04:36:51;;;;;;;;;;;;;;;11.31;42.12;100357.81;5022601;28;19917;-76
2022/01/04 04:39:16;;;;;;;;;;;;;;;11.30;42.33;100348.81;5021161;28;19947;-75
2022/01/04 04:41:41;;;;;;;;;;;;;;;11.45;42.00;100355.69;5023843;28;19925;-73
2022/01/04 04:44:07;;;;;;;;;;;;;;;11.38;42.18;100349.91;5019511;28;20433;-72
2022/01/04 04:46:33;;;;;;;;;;;;;;;11.34;42.25;100357.97;5022709;28;19918;-77
2022/01/04 04:48:59;;;;;;;;;;;;;;;11.50;41.81;100362.91;5023459;28;20299;-77
2022/01/04 04:51:26;;;;;;;;;;;;;;;11.35;42.28;100358.78;5021624;28;19928;-75
2022/01/04 04:53:51;;;;;;;;;;;;;;;11.44;41.91;100358.75;5021631;28;19917;-72
2022/01/04 04:56:17;;;;;;;;;;;;;;;11.08;43.10;100368.97;5022970;28;19917;-73
2022/01/04 04:58:42;;;;;;;;;;;;;;;11.10;42.92;100387.78;5021109;28;19921;-73
2022/01/04 05:01:07;;;;;;;;;;;;;;;11.14;42.92;100388.75;5003265;28;19917;-76
2022/01/04 05:03:33;;;;;;;;;;;;;;;11.21;42.89;100388.25;5003720;28;19925;-74
2022/01/04 05:05:58;;;;;;;;;;;;;;;11.26;42.64;100396.28;5005333;28;19923;-75
2022/01/04 05:08:24;;;;;;;;;;;;;;;11.24;42.82;100390.34;5020213;28;20284;-74
2022/01/04 05:10:49;;;;;;;;;;;;;;;11.19;42.89;100401.47;5021984;28;19932;-76
2022/01/04 05:13:15;;;;;;;;;;;;;;;11.22;42.77;100395.34;5021033;28;20346;-77
2022/01/04 05:15:40;;;;;;;;;;;;;;;11.19;43.02;100399.53;5005049;28;19967;-72
2022/01/04 05:18:08;;;;;;;;;;;;;;;11.02;43.28;100397.59;5021086;28;19922;-72
2022/01/04 05:20:33;;;;;;;;;;;;;;;11.06;43.28;100409.50;5003000;28;20430;-76
2022/01/04 05:22:58;;;;;;;;;;;;;;;10.99;43.48;100408.41;5004524;28;19921;-71
2022/01/04 05:25:24;;;;;;;;;;;;;;;11.31;42.60;100418.00;5022447;28;19917;-72
2022/01/04 05:27:49;;;;;;;;;;;;;;;11.20;42.94;100422.22;5024649;28;19921;-73
2022/01/04 05:30:15;;;;;;;;;;;;;;;11.01;43.37;100417.88;5026543;28;19917;-73
2022/01/04 05:32:40;;;;;;;;;;;;;;;11.03;43.22;100415.66;5025104;28;19917;-72
2022/01/04 05:35:06;;;;;;;;;;;;;;;11.13;43.12;100421.91;5025199;28;19917;-76
2022/01/04 05:37:32;;;;;;;;;;;;;;;11.18;42.89;100419.78;5026541;28;20338;-76
2022/01/04 05:39:57;;;;;;;;;;;;;;;11.24;42.56;100420.41;5026321;28;19921;-77
2022/01/04 05:42:22;;;;;;;;;;;;;;;11.30;42.44;100421.84;5026656;28;19921;-73
2022/01/04 05:44:48;;;;;;;;;;;;;;;11.08;42.83;100425.59;5025823;28;19921;-76
2022/01/04 05:47:13;;;;;;;;;;;;;;;11.23;42.70;100427.00;5022204;28;20395;-73
2022/01/04 05:49:39;;;;;;;;;;;;;;;11.18;42.72;100425.25;5024310;28;19967;-73
2022/01/04 05:52:04;;;;;;;;;;;;;;;11.24;42.64;100432.16;5009084;28;19921;-74
2022/01/04 05:54:30;;;;;;;;;;;;;;;11.14;42.74;100431.72;5024176;28;19921;-72
2022/01/04 05:56:56;;;;;;;;;;;;;;;11.00;43.15;100435.41;5007936;28;19917;-78
2022/01/04 05:59:21;;;;;;;;;;;;;;;11.00;43.09;100431.88;5024240;28;19918;-76
2022/01/04 06:01:46;;;;;;;;;;;;;;;10.99;43.04;100425.59;5024403;28;20426;-74
2022/01/04 06:04:12;;;;;;;;;;;;;;;11.03;42.98;100426.59;5025749;28;19917;-77
2022/01/04 06:06:41;;;;;;;;;;;;;;;11.14;42.81;100437.16;5023950;28;19920;-77
2022/01/04 06:09:08;;;;;;;;;;;;;;;11.16;42.74;100443.91;5024257;28;19917;-75
2022/01/04 06:16:58;;;;;;;;;;;;;;;11.09;42.71;100458.06;5025567;28;20020;-73
2022/01/04 06:19:24;;;;;;;;;;;;;;;11.04;42.81;100433.66;5024063;28;20447;-73
2022/01/04 06:21:50;;;;;;;;;;;;;;;11.26;42.34;100461.91;5023923;28;19920;-72
2022/01/04 06:24:15;;;;;;;;;;;;;;;11.25;42.54;100454.84;5022598;28;19935;-76
2022/01/04 06:26:41;;;;;;;;;;;;;;;11.27;42.40;100458.88;5025898;28;19971;-72
2022/01/04 06:29:07;;;;;;;;;;;;;;;11.23;42.63;100462.56;5022916;28;19924;-72
2022/01/04 06:31:33;;;;;;;;;;;;;;;11.16;42.62;100462.25;5025208;28;20291;-76
2022/01/04 06:33:58;;;;;;;;;;;;;;;11.11;42.80;100474.97;5023376;28;19925;-77
2022/01/04 06:36:24;;;;;;;;;;;;;;;11.17;42.25;100483.00;5024997;28;19924;-73
2022/01/04 06:38:49;;;;;;;;;;;;;;;11.03;42.97;100480.44;5023315;28;19921;-73
2022/01/04 06:41:15;;;;;;;;;;;;;;;11.08;42.82;100472.88;5023633;28;20007;-77
2022/01/04 06:43:40;;;;;;;;;;;;;;;11.11;42.71;100465.97;5025216;28;19964;-74
2022/01/04 06:46:06;;;;;;;;;;;;;;;10.99;42.99;100469.34;5023562;28;19921;-75
2022/01/04 06:48:31;;;;;;;;;;;;;;;11.14;42.78;100470.00;5023996;28;19917;-74
2022/01/04 06:50:57;;;;;;;;;;;;;;;11.28;42.39;100473.34;5024896;28;19924;-77
2022/01/04 06:53:22;;;;;;;;;;;;;;;11.39;42.10;100466.41;5022512;28;20395;-73
2022/01/04 06:55:50;;;;;;;;;;;;;;;11.23;42.41;100470.78;5014437;28;19918;-73
2022/01/04 06:58:16;;;;;;;;;;;;;;;11.20;42.51;100468.69;5014453;28;20000;-73
2022/01/04 07:00:42;;;;;;;;;;;;;;;11.21;42.52;100471.09;5014338;28;19918;-77
2022/01/04 07:03:07;;;;;;;;;;;;;;;11.18;42.51;100474.47;5014414;28;20376;-73
2022/01/04 07:05:35;;;;;;;;;;;;;;;11.32;42.28;100471.56;5014253;28;19917;-74
2022/01/04 07:08:00;;;;;;;;;;;;;;;11.09;42.82;100477.22;5014241;28;19917;-74
2022/01/04 07:10:26;;;;;;;;;;;;;;;11.09;42.96;100474.47;5014190;28;20335;-73
2022/01/04 07:12:51;;;;;;;;;;;;;;;11.23;42.65;100476.25;4996593;28;20295;-74
2022/01/04 07:15:17;;;;;;;;;;;;;;;10.97;43.41;100471.59;5014149;28;19921;-77
2022/01/04 07:17:42;;;;;;;;;;;;;;;11.14;42.92;100481.72;5014111;28;20016;-73
2022/01/04 07:20:08;;;;;;;;;;;;;;;11.23;42.87;100481.72;5014084;28;19918;-73
2022/01/04 07:22:34;;;;;;;;;;;;;;;11.04;43.51;100488.34;5013900;28;19918;-78
2022/01/04 07:24:59;;;;;;;;;;;;;;;11.26;42.92;100500.19;5013929;28;19990;-73
2022/01/04 07:27:26;;;;;;;;;;;;;;;11.14;43.16;100491.88;4996298;28;19918;-73
2022/01/04 07:29:51;;;;;;;;;;;;;;;11.18;43.17;100498.28;5013803;28;20280;-73
2022/01/04 07:32:17;;;;;;;;;;;;;;;11.25;43.05;100506.81;5013767;28;19925;-73
2022/01/04 07:34:42;;;;;;;;;;;;;;;11.26;42.78;100500.19;4996139;28;20295;-73
2022/01/04 07:37:08;;;;;;;;;;;;;;;11.09;43.34;100518.22;5013779;28;19925;-73
2022/01/04 07:39:33;;;;;;;;;;;;;;;11.31;42.76;100521.94;5013726;28;19925;-73
2022/01/04 07:41:58;;;;;;;;;;;;;;;10.97;43.58;100523.56;5013667;28;20037;-73
2022/01/04 07:44:25;;;;;;;;;;;;;;;11.14;43.25;100524.69;5013407;28;20307;-74
2022/01/04 07:46:51;;;;;;;;;;;;;;;11.02;43.50;100541.72;5013586;28;20012;-75
2022/01/04 07:49:17;;;;;;;;;;;;;;;11.13;43.39;100532.06;5013587;28;20300;-73
2022/01/04 07:51:42;;;;;;;;;;;;;;;11.05;43.34;100543.81;4995863;28;19972;-74
2022/01/04 07:54:08;;;;;;;;;;;;;;;10.90;43.68;100545.09;5013309;28;20287;-73
2022/01/04 07:56:34;;;;;;;;;;;;;;;11.00;43.74;100539.31;5012134;28;19925;-73
2022/01/04 07:59:00;;;;;;;;;;;;;;;11.04;43.65;100553.16;5013340;28;19975;-73
2022/01/04 08:01:28;;;;;;;;;;;;;;;11.08;43.51;100554.91;5013249;28;20390;-73
2022/01/04 08:03:53;;;;;;;;;;;;;;;11.10;43.60;100546.38;5013244;28;19918;-74
2022/01/04 08:06:18;;;;;;;;;;;;;;;11.03;43.75;100552.34;5013202;28;19991;-73
2022/01/04 08:08:44;;;;;;;;;;;;;;;10.91;43.83;100556.81;5013285;28;19968;-73
2022/01/04 08:11:09;;;;;;;;;;;;;;;10.99;43.67;100556.03;4995483;28;19921;-73
2022/01/04 08:13:35;;;;;;;;;;;;;;;10.91;43.82;100554.09;5013106;28;20422;-73
2022/01/04 08:16:01;;;;;;;;;;;;;;;10.96;43.62;100562.94;5013128;28;20320;-77
2022/01/04 08:18:26;;;;;;;;;;;;;;;11.10;43.21;100562.78;5013074;28;20019;-73
2022/01/04 08:20:56;;;;;;;;;;;;;;;10.89;43.83;100559.88;5012928;28;20291;-73
2022/01/04 08:23:22;;;;;;;;;;;;;;;11.00;43.58;100558.44;5012944;28;20021;-74
2022/01/04 08:25:48;;;;;;;;;;;;;;;11.02;43.22;100563.59;5012972;28;19949;-74
2022/01/04 08:28:13;;;;;;;;;;;;;;;11.01;43.14;100562.78;5012891;28;19923;-73
2022/01/04 08:30:40;;;;;;;;;;;;;;;11.15;42.99;100559.09;5012877;28;19932;-73
2022/01/04 08:33:07;;;;;;;;;;;;;;;11.09;42.99;100561.97;5012874;28;19924;-73
2022/01/04 08:35:33;;;;;;;;;;;;;;;11.19;42.81;100560.09;4995123;28;19923;-73
2022/01/04 08:37:58;;;;;;;;;;;;;;;11.20;42.64;100570.69;5012597;28;19917;-73
2022/01/04 08:40:23;;;;;;;;;;;;;;;11.13;42.76;100567.63;5012681;28;19918;-73
2022/01/04 08:42:49;;;;;;;;;;;;;;;11.17;42.72;100568.59;5012555;28;19921;-74
2022/01/04 08:45:16;;;;;;;;;;;;;;;11.14;42.52;100571.97;4994985;28;19979;-74
2022/01/04 08:47:42;;;;;;;;;;;;;;;11.08;42.70;100593.19;4995055;28;19961;-73
2022/01/04 08:50:09;;;;;;;;;;;;;;;11.13;42.73;100594.16;5012661;28;20474;-73
2022/01/04 08:52:35;;;;;;;;;;;;;;;11.14;42.42;100595.78;4994976;28;19917;-72
2022/01/04 08:55:01;;;;;;;;;;;;;;;11.18;42.38;100604.94;5011762;28;20352;-74
2022/01/04 08:57:26;;;;;;;;;;;;;;;11.15;42.40;100606.38;4994919;28;19917;-73
2022/01/04 08:59:54;;;;;;;;;;;;;;;11.03;42.58;100606.19;5012580;28;19917;-77
2022/01/04 09:02:20;;;;;;;;;;;;;;;11.14;42.52;100617.66;4998689;28;20005;-73
2022/01/04 09:04:45;;;;;;;;;;;;;;;11.16;42.59;100609.94;5016620;28;20403;-73
2022/01/04 09:07:11;;;;;;;;;;;;;;;11.21;42.47;100613.31;5016542;28;19975;-73
2022/01/04 09:09:36;;;;;;;;;;;;;;;11.22;42.26;100614.13;5016551;28;20016;-73
2022/01/04 09:12:02;;;;;;;;;;;;;;;11.20;42.36;100627.31;5016470;28;19918;-73
2022/01/04 09:14:41;;;;;;;;;;;;;;;11.31;42.30;100625.88;5016624;28;19921;-74
2022/01/04 09:19:51;;;;;;;;;;;;;;;11.25;42.15;100629.88;5016420;28;19925;-73
2022/01/04 09:22:17;;;;;;;;;;;;;;;11.34;42.16;100634.25;5016113;28;19918;-73
2022/01/04 09:24:42;;;;;;;;;;;;;;;11.30;41.83;100646.16;5016236;28;20019;-74
2022/01/04 09:27:08;;;;;;;;;;;;;;;11.24;42.04;100655.63;5016498;28;19924;-73
2022/01/04 09:29:34;;;;;;;;;;;;;;;11.31;41.97;100658.69;5036257;28;19921;-74
2022/01/04 09:32:01;;;;;;;;;;;;;;;11.34;42.02;100667.09;5035852;28;19924;-73
2022/01/04 09:34:27;;;;;;;;;;;;;;;11.30;41.79;100678.97;5035942;28;20276;-73
2022/01/04 09:36:52;;;;;;;;;;;;;;;11.08;41.91;100680.69;5035590;28;19924;-72
2022/01/04 09:39:21;;;;;;;;;;;;;;;11.21;42.18;100683.63;5035728;28;20359;-73
2022/01/04 09:41:46;;;;;;;;;;;;;;;11.23;41.91;100681.38;5035565;28;19972;-73
2022/01/04 09:44:12;;;;;;;;;;;;;;;11.23;42.11;100686.84;5017376;28;19921;-73
2022/01/04 09:46:38;;;;;;;;;;;;;;;11.18;41.94;100692.44;5035549;28;19924;-72
2022/01/04 09:49:03;;;;;;;;;;;;;;;11.18;41.97;100687.78;5035496;28;19917;-79
2022/01/04 09:51:30;;;;;;;;;;;;;;;11.05;42.24;100686.81;5035551;28;20372;-74
2022/01/04 09:53:55;;;;;;;;;;;;;;;11.26;41.99;100697.13;5017646;28;19917;-73
2022/01/04 09:56:21;;;;;;;;;;;;;;;11.35;42.04;100692.50;5035497;28;19917;-74
2022/01/04 09:58:46;;;;;;;;;;;;;;;11.44;41.88;100692.53;5034994;28;19928;-72
2022/01/04 10:01:26;;;;;;;;;;;;;;;11.55;41.91;100700.09;5028388;28;19922;-73
2022/01/04 10:03:51;;;;;;;;;;;;;;;11.37;41.85;100696.53;5025333;28;20366;-79
2022/01/04 10:06:17;;;;;;;;;;;;;;;11.59;41.55;100717.50;5023539;28;19956;-82
2022/01/04 10:08:55;;;;;;;;;;;;;;;11.56;41.40;100712.66;5023932;28;19925;-81
2022/01/04 10:11:33;;;;;;;;;;;;;;;11.61;41.50;100709.75;5007206;28;19943;-73
2022/01/04 10:13:59;;;;;;;;;;;;;;;11.60;41.52;100702.69;5023990;28;19996;-72
2022/01/04 10:16:25;;;;;;;;;;;;;;;11.47;41.59;100702.81;5031888;28;19917;-80
2022/01/04 10:18:51;;;;;;;;;;;;;;;11.31;42.04;100707.94;5017338;28;20000;-72
2022/01/04 10:21:17;;;;;;;;;;;;;;;11.39;41.91;100718.09;5016461;28;19917;-73
2022/01/04 10:23:44;;;;;;;;;;;;;;;11.27;42.29;100710.50;5034575;28;19971;-73
2022/01/04 10:26:09;;;;;;;;;;;;;;;11.35;42.34;100717.13;5034854;28;20012;-73
2022/01/04 10:28:36;;;;;;;;;;;;;;;11.43;42.15;100724.53;5016760;28;20023;-73
2022/01/04 10:31:09;;;;;;;;;;;;;;;11.60;41.96;100727.31;5031845;28;20020;-72
2022/01/04 10:33:36;;;;;;;;;;;;;;;11.73;41.60;100722.00;4999644;28;20372;-72
2022/01/04 10:36:08;;;;;;;;;;;;;;;11.77;41.82;100728.44;5034976;28;19948;-73
2022/01/04 10:38:35;;;;;;;;;;;;;;;11.82;41.67;100718.19;5034741;28;20023;-79
2022/01/04 10:41:08;;;;;;;;;;;;;;;11.72;42.00;100718.47;5034649;28;19917;-72
2022/01/04 10:43:54;;;;;;;;;;;;;;;11.72;41.82;100726.69;5034437;28;19986;-72
2022/01/04 10:46:32;;;;;;;;;;;;;;;11.78;41.64;100725.38;5034584;28;19925;-77
2022/01/04 10:48:58;;;;;;;;;;;;;;;11.96;41.59;100725.44;5016691;28;20291;-79
2022/01/04 10:51:24;;;;;;;;;;;;;;;12.07;41.35;100727.50;5034463;28;19918;-73
2022/01/04 10:53:53;;;;;;;;;;;;;;;11.92;41.63;100736.22;5034420;28;19928;-73
2022/01/04 10:56:23;;;;;;;;;;;;;;;12.07;41.59;100734.94;5034332;28;19924;-72
2022/01/04 10:58:50;;;;;;;;;;;;;;;12.25;40.90;100733.81;5034249;28;19924;-75
2022/01/04 11:01:19;;;;;;;;;;;;;;;12.28;40.79;100732.34;5016408;28;19971;-78
2022/01/04 11:03:45;;;;;;;;;;;;;;;12.33;40.70;100729.44;5034204;28;20008;-73
2022/01/04 11:06:15;;;;;;;;;;;;;;;12.28;40.79;100730.41;5034082;28;20011;-73
2022/01/04 11:08:41;;;;;;;;;;;;;;;12.25;40.99;100724.78;5034059;28;19917;-73
2022/01/04 11:11:07;;;;;;;;;;;;;;;12.37;40.97;100708.47;5016383;28;20260;-72
2022/01/04 11:13:33;;;;;;;;;;;;;;;12.58;40.55;100717.59;5033865;28;19918;-73
2022/01/04 11:16:01;;;;;;;;;;;;;;;12.46;40.55;100712.78;5016226;28;20015;-78
2022/01/04 11:18:27;;;;;;;;;;;;;;;12.47;40.67;100710.88;5033923;28;19924;-72
2022/01/04 11:20:53;;;;;;;;;;;;;;;12.59;40.70;100705.50;5033858;28;19972;-72
2022/01/04 11:23:23;;;;;;;;;;;;;;;12.68;40.39;100709.03;5033300;28;19960;-74
2022/01/04 11:25:50;;;;;;;;;;;;;;;12.71;40.61;100713.06;5033772;28;19944;-78
2022/01/04 11:28:15;;;;;;;;;;;;;;;12.57;40.20;100712.47;5033405;28;19917;-72
2022/01/04 11:30:56;;;;;;;;;;;;;;;12.64;39.68;100719.03;5032910;28;20288;-73
2022/01/04 11:33:30;;;;;;;;;;;;;;;12.60;39.70;100711.78;5033101;28;19932;-75
2022/01/04 11:35:55;;;;;;;;;;;;;;;12.65;39.83;100717.91;5015169;28;20294;-78
2022/01/04 11:38:41;;;;;;;;;;;;;;;12.73;39.07;100697.09;5033383;28;20008;-79
2022/01/04 11:41:07;;;;;;;;;;;;;;;12.69;39.08;100702.41;5032849;28;19960;-73
2022/01/04 11:43:38;;;;;;;;;;;;;;;12.84;38.56;100703.00;5033003;28;19979;-75
2022/01/04 11:46:04;;;;;;;;;;;;;;;12.90;38.53;100701.69;5033101;28;19917;-76
2022/01/04 11:48:31;;;;;;;;;;;;;;;12.89;38.05;100709.09;5031710;28;20263;-72
2022/01/04 11:51:01;;;;;;;;;;;;;;;12.78;38.35;100708.69;5032518;28;20391;-78
2022/01/04 11:53:27;;;;;;;;;;;;;;;12.70;38.40;100706.78;5033166;28;19986;-72
2022/01/04 11:55:55;;;;;;;;;;;;;;;12.77;37.99;100709.81;5032901;28;20434;-72
2022/01/04 11:58:23;;;;;;;;;;;;;;;12.90;37.90;100701.69;5032830;28;19917;-72
2022/01/04 12:01:11;;;;;;;;;;;;;;;12.49;38.10;100700.38;5032871;28;21927;-73
2022/01/04 12:03:39;;;;;;;;;;;;;;;12.80;38.02;100699.31;5032991;28;19964;-72
2022/01/04 12:06:05;;;;;;;;;;;;;;;13.10;37.41;100703.69;5033016;28;19917;-72
2022/01/04 12:08:39;;;;;;;;;;;;;;;12.94;37.33;100705.38;5033003;28;19917;-72
2022/01/04 12:11:18;;;;;;;;;;;;;;;12.75;37.55;100705.78;5012196;28;20016;-72
2022/01/04 12:13:51;;;;;;;;;;;;;;;13.04;37.46;100705.00;5013621;28;19990;-73
2022/01/04 12:16:29;;;;;;;;;;;;;;;12.64;37.80;100708.06;5015032;28;20371;-72
2022/01/04 12:18:57;;;;;;;;;;;;;;;12.93;37.69;100720.25;5032915;28;20456;-73
2022/01/04 12:21:27;;;;;;;;;;;;;;;13.18;37.28;100727.53;5032571;28;19917;-72
2022/01/04 12:23:54;;;;;;;;;;;;;;;13.15;37.36;100713.66;5015012;28;19917;-72
2022/01/04 12:26:20;;;;;;;;;;;;;;;13.25;37.24;100721.56;5032667;28;19921;-74
2022/01/04 12:29:05;;;;;;;;;;;;;;;12.79;38.29;100725.94;5032657;28;19932;-79
2022/01/04 12:31:33;;;;;;;;;;;;;;;13.00;37.80;100720.53;5014763;28;19917;-72
2022/01/04 12:34:00;;;;;;;;;;;;;;;13.48;37.26;100722.88;5032645;28;19921;-72
2022/01/04 12:36:29;;;;;;;;;;;;;;;13.54;37.31;100715.25;5031677;28;19925;-72
2022/01/04 12:38:56;;;;;;;;;;;;;;;13.54;37.18;100723.50;5032542;28;20028;-72
2022/01/04 12:41:22;;;;;;;;;;;;;;;13.78;37.11;100720.88;5014403;28;19971;-73
2022/01/04 12:43:49;;;;;;;;;;;;;;;13.40;37.62;100721.00;5014301;28;19925;-72
2022/01/04 12:46:23;;;;;;;;;;;;;;;13.44;37.51;100705.44;5032319;28;19921;-72